Miami Municipal Airport


Codes: KMIO/
Name: Miami Municipal Airport
City: Miami
Country: United States
Elevation: 808 ft.

Photos at Miami Municipal Airport


   Photos courtesy of SpottingLog. You can add your own sightings and photos by signing up for a free trial today.



No photos found.

Weather at Miami Municipal Airport


Time (UTC)DescriptionTempratureWindCloud coverageVisibilityPressureHumidity
21-Feb-2024 03:00Scattered Clouds11°C9 mph, SE49%10000m1019hPa69%
21-Feb-2024 06:00Scattered Clouds11°C11 mph, SE50%10000m1019hPa69%
21-Feb-2024 09:00Broken Clouds11°C11 mph, S72%10000m1017hPa76%
21-Feb-2024 12:00Overcast Clouds11°C13 mph, S91%10000m1014hPa90%
21-Feb-2024 15:00Overcast Clouds13°C13 mph, S100%10000m1014hPa84%
21-Feb-2024 18:00Overcast Clouds19°C20 mph, SW100%10000m1011hPa56%
21-Feb-2024 21:00Overcast Clouds21°C16 mph, SW100%10000m1008hPa49%
22-Feb-2024 00:00Overcast Clouds19°C13 mph, S99%10000m1006hPa57%
22-Feb-2024 03:00Broken Clouds18°C18 mph, S70%10000m1005hPa65%
22-Feb-2024 06:00Light Rain17°C13 mph, S85%10000m1004hPa76%
22-Feb-2024 09:00Light Rain16°C16 mph, S81%10000m1002hPa82%
22-Feb-2024 12:00Scattered Clouds14°C9 mph, SW43%10000m1002hPa89%
22-Feb-2024 15:00Clear Sky14°C13 mph, N1%10000m1005hPa79%
22-Feb-2024 18:00Clear Sky18°C18 mph, N5%10000m1008hPa64%
22-Feb-2024 21:00Few Clouds19°C18 mph, N14%10000m1009hPa40%
23-Feb-2024 00:00Few Clouds14°C13 mph, N17%10000m1011hPa56%
23-Feb-2024 03:00Clear Sky10°C9 mph, NW3%10000m1014hPa63%
23-Feb-2024 06:00Clear Sky9°C9 mph, NW2%10000m1015hPa65%
23-Feb-2024 09:00Clear Sky7°C7 mph, NW0%10000m1015hPa67%
23-Feb-2024 12:00Clear Sky6°C7 mph, NW0%10000m1016hPa71%
23-Feb-2024 15:00Clear Sky10°C4 mph, NW0%10000m1017hPa59%
23-Feb-2024 18:00Clear Sky15°C9 mph, W0%10000m1016hPa42%
23-Feb-2024 21:00Clear Sky17°C11 mph, W0%10000m1013hPa35%
24-Feb-2024 00:00Clear Sky13°C7 mph, NW1%10000m1013hPa47%
24-Feb-2024 03:00Clear Sky11°C7 mph, NW0%10000m1015hPa53%
24-Feb-2024 06:00Clear Sky9°C9 mph, W2%10000m1015hPa55%
24-Feb-2024 09:00Clear Sky8°C7 mph, NW1%10000m1017hPa62%
24-Feb-2024 12:00Clear Sky6°C7 mph, N1%10000m1018hPa66%
24-Feb-2024 15:00Clear Sky9°C4 mph, NE0%10000m1020hPa59%
24-Feb-2024 18:00Clear Sky14°C4 mph, S0%10000m1019hPa42%
24-Feb-2024 21:00Clear Sky17°C11 mph, SW0%10000m1016hPa33%
25-Feb-2024 00:00Clear Sky13°C9 mph, S0%10000m1015hPa48%
25-Feb-2024 03:00Clear Sky11°C11 mph, S0%10000m1015hPa50%
25-Feb-2024 06:00Clear Sky11°C13 mph, S2%10000m1013hPa51%
25-Feb-2024 09:00Scattered Clouds13°C18 mph, S30%10000m1011hPa56%
25-Feb-2024 12:00Broken Clouds13°C18 mph, SW56%10000m1009hPa58%
25-Feb-2024 15:00Overcast Clouds15°C18 mph, SW100%10000m1010hPa60%
25-Feb-2024 18:00Overcast Clouds19°C20 mph, SW100%10000m1008hPa51%
25-Feb-2024 21:00Overcast Clouds21°C13 mph, SW98%10000m1007hPa47%
26-Feb-2024 00:00Overcast Clouds18°C4 mph, SW97%10000m1007hPa58%